sensor_id;sensor_type;location;lat;lon;timestamp;P1;durP1;ratioP1;P2;durP2;ratioP2
48925;SDS011;39838;59.938;30.642;2023-02-04T00:00:07;10.75;;;6.25;;
48925;SDS011;39838;59.938;30.642;2023-02-04T00:02:37;12.25;;;6.07;;
48925;SDS011;39838;59.938;30.642;2023-02-04T00:05:05;11.80;;;6.63;;
48925;SDS011;39838;59.938;30.642;2023-02-04T00:07:34;10.63;;;5.55;;
48925;SDS011;39838;59.938;30.642;2023-02-04T00:10:02;10.98;;;5.97;;
48925;SDS011;39838;59.938;30.642;2023-02-04T00:12:30;10.15;;;5.88;;
48925;SDS011;39838;59.938;30.642;2023-02-04T00:14:58;10.90;;;5.82;;
48925;SDS011;39838;59.938;30.642;2023-02-04T00:17:25;10.20;;;5.70;;
48925;SDS011;39838;59.938;30.642;2023-02-04T00:19:52;9.63;;;5.72;;
48925;SDS011;39838;59.938;30.642;2023-02-04T00:22:19;12.07;;;5.68;;
48925;SDS011;39838;59.938;30.642;2023-02-04T00:24:48;12.02;;;6.50;;
48925;SDS011;39838;59.938;30.642;2023-02-04T00:27:15;11.45;;;6.05;;
48925;SDS011;39838;59.938;30.642;2023-02-04T00:29:42;10.80;;;5.57;;
48925;SDS011;39838;59.938;30.642;2023-02-04T00:32:09;12.73;;;5.80;;
48925;SDS011;39838;59.938;30.642;2023-02-04T00:34:36;11.48;;;6.20;;
48925;SDS011;39838;59.938;30.642;2023-02-04T00:37:03;11.60;;;6.38;;
48925;SDS011;39838;59.938;30.642;2023-02-04T00:39:30;12.60;;;5.97;;
48925;SDS011;39838;59.938;30.642;2023-02-04T00:41:59;13.95;;;5.88;;
48925;SDS011;39838;59.938;30.642;2023-02-04T00:44:26;14.45;;;5.47;;
48925;SDS011;39838;59.938;30.642;2023-02-04T00:46:53;11.18;;;6.10;;
48925;SDS011;39838;59.938;30.642;2023-02-04T00:49:20;13.88;;;6.28;;
48925;SDS011;39838;59.938;30.642;2023-02-04T00:51:47;11.80;;;6.00;;
48925;SDS011;39838;59.938;30.642;2023-02-04T00:54:15;11.55;;;5.78;;
48925;SDS011;39838;59.938;30.642;2023-02-04T00:56:43;12.80;;;6.32;;
48925;SDS011;39838;59.938;30.642;2023-02-04T00:59:12;12.98;;;6.50;;
48925;SDS011;39838;59.938;30.642;2023-02-04T01:01:39;14.57;;;7.32;;
48925;SDS011;39838;59.938;30.642;2023-02-04T01:04:06;10.95;;;6.05;;
48925;SDS011;39838;59.938;30.642;2023-02-04T01:06:33;13.30;;;6.88;;
48925;SDS011;39838;59.938;30.642;2023-02-04T01:09:00;14.35;;;6.35;;
48925;SDS011;39838;59.938;30.642;2023-02-04T01:11:28;13.05;;;6.93;;
48925;SDS011;39838;59.938;30.642;2023-02-04T01:13:56;12.32;;;6.65;;
48925;SDS011;39838;59.938;30.642;2023-02-04T01:16:25;14.55;;;6.32;;
48925;SDS011;39838;59.938;30.642;2023-02-04T01:18:52;14.75;;;7.05;;
48925;SDS011;39838;59.938;30.642;2023-02-04T01:21:20;11.88;;;6.22;;
48925;SDS011;39838;59.938;30.642;2023-02-04T01:23:47;11.45;;;6.22;;
48925;SDS011;39838;59.938;30.642;2023-02-04T01:26:15;12.68;;;5.90;;
48925;SDS011;39838;59.938;30.642;2023-02-04T01:28:42;12.55;;;6.15;;
48925;SDS011;39838;59.938;30.642;2023-02-04T01:31:09;12.63;;;5.65;;
48925;SDS011;39838;59.938;30.642;2023-02-04T01:33:38;10.02;;;5.85;;
48925;SDS011;39838;59.938;30.642;2023-02-04T01:36:05;12.52;;;6.18;;
48925;SDS011;39838;59.938;30.642;2023-02-04T01:38:33;12.50;;;6.70;;
48925;SDS011;39838;59.938;30.642;2023-02-04T01:41:00;11.98;;;6.50;;
48925;SDS011;39838;59.938;30.642;2023-02-04T01:43:28;12.35;;;6.70;;
48925;SDS011;39838;59.938;30.642;2023-02-04T01:45:56;12.57;;;6.55;;
48925;SDS011;39838;59.938;30.642;2023-02-04T01:48:24;11.85;;;5.97;;
48925;SDS011;39838;59.938;30.642;2023-02-04T01:50:54;12.95;;;6.65;;
48925;SDS011;39838;59.938;30.642;2023-02-04T01:53:28;14.63;;;7.30;;
48925;SDS011;39838;59.938;30.642;2023-02-04T01:55:55;15.35;;;6.95;;
48925;SDS011;39838;59.938;30.642;2023-02-04T01:58:22;12.00;;;6.20;;
48925;SDS011;39838;59.938;30.642;2023-02-04T02:00:50;12.35;;;5.97;;
48925;SDS011;39838;59.938;30.642;2023-02-04T02:03:17;15.13;;;7.40;;
48925;SDS011;39838;59.938;30.642;2023-02-04T02:05:45;16.00;;;7.50;;
48925;SDS011;39838;59.938;30.642;2023-02-04T02:08:16;14.52;;;7.28;;
48925;SDS011;39838;59.938;30.642;2023-02-04T02:10:44;15.05;;;7.25;;
48925;SDS011;39838;59.938;30.642;2023-02-04T02:13:14;15.27;;;7.40;;
48925;SDS011;39838;59.938;30.642;2023-02-04T02:15:43;15.48;;;7.90;;
48925;SDS011;39838;59.938;30.642;2023-02-04T02:18:11;13.35;;;6.50;;
48925;SDS011;39838;59.938;30.642;2023-02-04T02:20:38;13.82;;;6.47;;
48925;SDS011;39838;59.938;30.642;2023-02-04T02:23:10;15.40;;;6.95;;
48925;SDS011;39838;59.938;30.642;2023-02-04T02:25:46;16.42;;;7.63;;
48925;SDS011;39838;59.938;30.642;2023-02-04T02:28:14;15.77;;;7.78;;
48925;SDS011;39838;59.938;30.642;2023-02-04T02:30:44;15.70;;;7.90;;
48925;SDS011;39838;59.938;30.642;2023-02-04T02:33:13;16.02;;;8.35;;
48925;SDS011;39838;59.938;30.642;2023-02-04T02:35:42;19.85;;;8.77;;
48925;SDS011;39838;59.938;30.642;2023-02-04T02:38:12;18.65;;;8.77;;
48925;SDS011;39838;59.938;30.642;2023-02-04T02:40:40;19.17;;;9.00;;
48925;SDS011;39838;59.938;30.642;2023-02-04T02:43:09;14.35;;;7.28;;
48925;SDS011;39838;59.938;30.642;2023-02-04T02:45:41;15.20;;;8.73;;
48925;SDS011;39838;59.938;30.642;2023-02-04T02:48:08;17.65;;;8.32;;
48925;SDS011;39838;59.938;30.642;2023-02-04T02:50:36;16.75;;;8.80;;
48925;SDS011;39838;59.938;30.642;2023-02-04T02:53:04;14.82;;;6.82;;
48925;SDS011;39838;59.938;30.642;2023-02-04T02:55:37;14.90;;;7.85;;
48925;SDS011;39838;59.938;30.642;2023-02-04T02:58:05;17.52;;;7.95;;
48925;SDS011;39838;59.938;30.642;2023-02-04T03:00:40;17.90;;;8.40;;
48925;SDS011;39838;59.938;30.642;2023-02-04T03:03:09;16.70;;;8.70;;
48925;SDS011;39838;59.938;30.642;2023-02-04T03:05:41;17.50;;;7.82;;
48925;SDS011;39838;59.938;30.642;2023-02-04T03:08:10;17.63;;;8.85;;
48925;SDS011;39838;59.938;30.642;2023-02-04T03:10:39;21.27;;;8.57;;
48925;SDS011;39838;59.938;30.642;2023-02-04T03:13:07;16.65;;;8.35;;
48925;SDS011;39838;59.938;30.642;2023-02-04T03:15:36;16.65;;;8.05;;
48925;SDS011;39838;59.938;30.642;2023-02-04T03:18:04;15.50;;;7.75;;
48925;SDS011;39838;59.938;30.642;2023-02-04T03:20:31;18.63;;;8.13;;
48925;SDS011;39838;59.938;30.642;2023-02-04T03:22:59;14.77;;;8.45;;
48925;SDS011;39838;59.938;30.642;2023-02-04T03:25:26;16.20;;;7.90;;
48925;SDS011;39838;59.938;30.642;2023-02-04T03:27:54;17.17;;;8.52;;
48925;SDS011;39838;59.938;30.642;2023-02-04T03:30:22;15.85;;;7.88;;
48925;SDS011;39838;59.938;30.642;2023-02-04T03:32:52;16.20;;;8.50;;
48925;SDS011;39838;59.938;30.642;2023-02-04T03:35:19;14.07;;;7.75;;
48925;SDS011;39838;59.938;30.642;2023-02-04T03:37:47;17.65;;;8.35;;
48925;SDS011;39838;59.938;30.642;2023-02-04T03:40:14;18.77;;;8.50;;
48925;SDS011;39838;59.938;30.642;2023-02-04T03:42:41;18.58;;;8.35;;
48925;SDS011;39838;59.938;30.642;2023-02-04T03:45:09;18.55;;;8.52;;
48925;SDS011;39838;59.938;30.642;2023-02-04T03:47:36;15.25;;;7.50;;
48925;SDS011;39838;59.938;30.642;2023-02-04T03:50:04;15.90;;;8.27;;
48925;SDS011;39838;59.938;30.642;2023-02-04T03:52:32;15.82;;;7.95;;
48925;SDS011;39838;59.938;30.642;2023-02-04T03:54:59;17.10;;;8.38;;
48925;SDS011;39838;59.938;30.642;2023-02-04T03:57:26;16.10;;;9.02;;
48925;SDS011;39838;59.938;30.642;2023-02-04T03:59:53;17.73;;;8.68;;
48925;SDS011;39838;59.938;30.642;2023-02-04T04:02:20;16.58;;;8.15;;
48925;SDS011;39838;59.938;30.642;2023-02-04T04:04:48;16.27;;;8.10;;
48925;SDS011;39838;59.938;30.642;2023-02-04T04:07:16;16.15;;;8.00;;
48925;SDS011;39838;59.938;30.642;2023-02-04T04:09:43;16.88;;;8.55;;
48925;SDS011;39838;59.938;30.642;2023-02-04T04:12:10;15.70;;;7.63;;
48925;SDS011;39838;59.938;30.642;2023-02-04T04:14:37;16.75;;;8.38;;
48925;SDS011;39838;59.938;30.642;2023-02-04T04:17:04;18.15;;;7.68;;
48925;SDS011;39838;59.938;30.642;2023-02-04T04:19:32;16.55;;;8.07;;
48925;SDS011;39838;59.938;30.642;2023-02-04T04:21:59;15.55;;;8.18;;
48925;SDS011;39838;59.938;30.642;2023-02-04T04:24:28;15.52;;;8.23;;
48925;SDS011;39838;59.938;30.642;2023-02-04T04:26:55;14.85;;;7.72;;
48925;SDS011;39838;59.938;30.642;2023-02-04T04:29:22;16.83;;;8.23;;
48925;SDS011;39838;59.938;30.642;2023-02-04T04:31:49;15.38;;;7.88;;
48925;SDS011;39838;59.938;30.642;2023-02-04T04:34:16;14.55;;;7.45;;
48925;SDS011;39838;59.938;30.642;2023-02-04T04:36:43;14.80;;;7.10;;
48925;SDS011;39838;59.938;30.642;2023-02-04T04:39:10;16.67;;;7.50;;
48925;SDS011;39838;59.938;30.642;2023-02-04T04:41:39;16.38;;;8.00;;
48925;SDS011;39838;59.938;30.642;2023-02-04T04:44:06;16.45;;;8.80;;
48925;SDS011;39838;59.938;30.642;2023-02-04T04:46:33;17.15;;;8.43;;
48925;SDS011;39838;59.938;30.642;2023-02-04T04:49:00;15.82;;;7.65;;
48925;SDS011;39838;59.938;30.642;2023-02-04T04:51:27;14.75;;;7.07;;
48925;SDS011;39838;59.938;30.642;2023-02-04T04:53:56;14.55;;;7.25;;
48925;SDS011;39838;59.938;30.642;2023-02-04T04:56:24;14.73;;;7.15;;
48925;SDS011;39838;59.938;30.642;2023-02-04T04:58:52;15.50;;;8.07;;
48925;SDS011;39838;59.938;30.642;2023-02-04T05:01:20;15.45;;;8.38;;
48925;SDS011;39838;59.938;30.642;2023-02-04T05:03:47;16.50;;;7.13;;
48925;SDS011;39838;59.938;30.642;2023-02-04T05:06:14;14.20;;;6.88;;
48925;SDS011;39838;59.938;30.642;2023-02-04T05:08:41;13.85;;;6.90;;
48925;SDS011;39838;59.938;30.642;2023-02-04T05:11:08;15.88;;;7.18;;
48925;SDS011;39838;59.938;30.642;2023-02-04T05:13:35;14.68;;;7.50;;
48925;SDS011;39838;59.938;30.642;2023-02-04T05:16:04;13.00;;;7.35;;
48925;SDS011;39838;59.938;30.642;2023-02-04T05:18:31;15.77;;;7.03;;
48925;SDS011;39838;59.938;30.642;2023-02-04T05:20:58;15.75;;;7.55;;
48925;SDS011;39838;59.938;30.642;2023-02-04T05:23:25;14.15;;;7.05;;
48925;SDS011;39838;59.938;30.642;2023-02-04T05:25:52;13.23;;;6.75;;
48925;SDS011;39838;59.938;30.642;2023-02-04T05:28:19;13.35;;;7.60;;
48925;SDS011;39838;59.938;30.642;2023-02-04T05:30:47;12.43;;;6.65;;
48925;SDS011;39838;59.938;30.642;2023-02-04T05:33:15;15.07;;;6.88;;
48925;SDS011;39838;59.938;30.642;2023-02-04T05:35:42;13.57;;;6.65;;
48925;SDS011;39838;59.938;30.642;2023-02-04T05:38:09;15.10;;;7.38;;
48925;SDS011;39838;59.938;30.642;2023-02-04T05:40:36;13.02;;;7.43;;
48925;SDS011;39838;59.938;30.642;2023-02-04T05:43:04;16.17;;;7.88;;
48925;SDS011;39838;59.938;30.642;2023-02-04T05:45:31;14.65;;;7.38;;
48925;SDS011;39838;59.938;30.642;2023-02-04T05:47:58;17.40;;;8.55;;
48925;SDS011;39838;59.938;30.642;2023-02-04T05:50:26;17.40;;;7.97;;
48925;SDS011;39838;59.938;30.642;2023-02-04T05:52:53;14.73;;;7.78;;
48925;SDS011;39838;59.938;30.642;2023-02-04T05:55:20;16.90;;;7.70;;
48925;SDS011;39838;59.938;30.642;2023-02-04T05:57:47;15.15;;;7.70;;
48925;SDS011;39838;59.938;30.642;2023-02-04T06:00:15;16.45;;;8.10;;
48925;SDS011;39838;59.938;30.642;2023-02-04T06:02:42;15.05;;;8.00;;
48925;SDS011;39838;59.938;30.642;2023-02-04T06:05:09;14.88;;;7.97;;
48925;SDS011;39838;59.938;30.642;2023-02-04T06:07:38;17.90;;;8.27;;
48925;SDS011;39838;59.938;30.642;2023-02-04T06:10:05;17.80;;;8.70;;
48925;SDS011;39838;59.938;30.642;2023-02-04T06:12:32;15.57;;;8.77;;
48925;SDS011;39838;59.938;30.642;2023-02-04T06:14:59;17.92;;;9.57;;
48925;SDS011;39838;59.938;30.642;2023-02-04T06:17:26;16.38;;;8.70;;
48925;SDS011;39838;59.938;30.642;2023-02-04T06:19:53;17.95;;;8.90;;
48925;SDS011;39838;59.938;30.642;2023-02-04T06:22:20;17.73;;;8.88;;
48925;SDS011;39838;59.938;30.642;2023-02-04T06:24:50;18.35;;;9.10;;
48925;SDS011;39838;59.938;30.642;2023-02-04T06:27:17;17.80;;;9.15;;
48925;SDS011;39838;59.938;30.642;2023-02-04T06:29:47;17.92;;;9.70;;
48925;SDS011;39838;59.938;30.642;2023-02-04T06:32:15;16.95;;;9.13;;
48925;SDS011;39838;59.938;30.642;2023-02-04T06:34:42;19.00;;;8.95;;
48925;SDS011;39838;59.938;30.642;2023-02-04T06:37:09;15.57;;;8.70;;
48925;SDS011;39838;59.938;30.642;2023-02-04T06:39:41;18.05;;;9.48;;
48925;SDS011;39838;59.938;30.642;2023-02-04T06:42:10;16.63;;;8.73;;
48925;SDS011;39838;59.938;30.642;2023-02-04T06:44:37;15.43;;;8.77;;
48925;SDS011;39838;59.938;30.642;2023-02-04T06:47:04;16.25;;;8.73;;
48925;SDS011;39838;59.938;30.642;2023-02-04T06:49:31;16.13;;;8.80;;
48925;SDS011;39838;59.938;30.642;2023-02-04T06:51:58;14.88;;;8.15;;
48925;SDS011;39838;59.938;30.642;2023-02-04T06:54:25;17.35;;;8.32;;
48925;SDS011;39838;59.938;30.642;2023-02-04T06:56:53;16.15;;;9.30;;
48925;SDS011;39838;59.938;30.642;2023-02-04T06:59:21;16.52;;;8.85;;
48925;SDS011;39838;59.938;30.642;2023-02-04T07:01:50;15.30;;;8.80;;
48925;SDS011;39838;59.938;30.642;2023-02-04T07:04:17;18.13;;;9.18;;
48925;SDS011;39838;59.938;30.642;2023-02-04T07:06:44;18.65;;;9.63;;
48925;SDS011;39838;59.938;30.642;2023-02-04T07:09:11;19.77;;;9.80;;
48925;SDS011;39838;59.938;30.642;2023-02-04T07:11:38;15.95;;;8.63;;
48925;SDS011;39838;59.938;30.642;2023-02-04T07:14:05;14.82;;;7.72;;
48925;SDS011;39838;59.938;30.642;2023-02-04T07:16:36;14.95;;;8.48;;
48925;SDS011;39838;59.938;30.642;2023-02-04T07:19:03;15.73;;;8.40;;
48925;SDS011;39838;59.938;30.642;2023-02-04T07:21:30;16.50;;;8.52;;
48925;SDS011;39838;59.938;30.642;2023-02-04T07:23:57;16.88;;;8.77;;
48925;SDS011;39838;59.938;30.642;2023-02-04T07:26:24;18.75;;;9.20;;
48925;SDS011;39838;59.938;30.642;2023-02-04T07:28:51;16.77;;;8.93;;
48925;SDS011;39838;59.938;30.642;2023-02-04T07:31:19;17.88;;;9.73;;
48925;SDS011;39838;59.938;30.642;2023-02-04T07:33:47;16.40;;;9.15;;
48925;SDS011;39838;59.938;30.642;2023-02-04T07:36:14;17.52;;;9.15;;
48925;SDS011;39838;59.938;30.642;2023-02-04T07:38:41;15.63;;;8.32;;
48925;SDS011;39838;59.938;30.642;2023-02-04T07:41:10;16.20;;;8.52;;
48925;SDS011;39838;59.938;30.642;2023-02-04T07:43:37;16.77;;;9.23;;
48925;SDS011;39838;59.938;30.642;2023-02-04T07:46:04;16.50;;;9.00;;
48925;SDS011;39838;59.938;30.642;2023-02-04T07:48:31;17.30;;;9.30;;
48925;SDS011;39838;59.938;30.642;2023-02-04T07:51:00;19.00;;;9.00;;
48925;SDS011;39838;59.938;30.642;2023-02-04T07:53:27;16.63;;;8.70;;
48925;SDS011;39838;59.938;30.642;2023-02-04T07:55:55;17.58;;;9.00;;
48925;SDS011;39838;59.938;30.642;2023-02-04T07:58:22;15.93;;;9.00;;
48925;SDS011;39838;59.938;30.642;2023-02-04T08:00:49;17.88;;;8.98;;
48925;SDS011;39838;59.938;30.642;2023-02-04T08:03:16;15.45;;;8.88;;
48925;SDS011;39838;59.938;30.642;2023-02-04T08:05:43;13.30;;;7.90;;
48925;SDS011;39838;59.938;30.642;2023-02-04T08:08:12;14.70;;;8.07;;
48925;SDS011;39838;59.938;30.642;2023-02-04T08:10:39;14.90;;;7.95;;
48925;SDS011;39838;59.938;30.642;2023-02-04T08:13:06;13.75;;;7.95;;
48925;SDS011;39838;59.938;30.642;2023-02-04T08:15:34;13.52;;;7.55;;
48925;SDS011;39838;59.938;30.642;2023-02-04T08:18:01;13.15;;;7.53;;
48925;SDS011;39838;59.938;30.642;2023-02-04T08:20:29;14.80;;;6.95;;
48925;SDS011;39838;59.938;30.642;2023-02-04T08:22:56;13.18;;;6.78;;
48925;SDS011;39838;59.938;30.642;2023-02-04T08:25:25;11.43;;;7.07;;
48925;SDS011;39838;59.938;30.642;2023-02-04T08:27:53;12.70;;;6.93;;
48925;SDS011;39838;59.938;30.642;2023-02-04T08:30:20;11.10;;;6.50;;
48925;SDS011;39838;59.938;30.642;2023-02-04T08:32:47;12.00;;;7.00;;
48925;SDS011;39838;59.938;30.642;2023-02-04T08:35:15;11.30;;;6.80;;
48925;SDS011;39838;59.938;30.642;2023-02-04T08:37:45;12.85;;;6.82;;
48925;SDS011;39838;59.938;30.642;2023-02-04T08:40:13;13.85;;;6.82;;
48925;SDS011;39838;59.938;30.642;2023-02-04T08:42:42;11.52;;;7.22;;
48925;SDS011;39838;59.938;30.642;2023-02-04T08:45:09;14.82;;;6.85;;
48925;SDS011;39838;59.938;30.642;2023-02-04T08:47:37;13.18;;;6.65;;
48925;SDS011;39838;59.938;30.642;2023-02-04T08:50:04;14.00;;;7.38;;
48925;SDS011;39838;59.938;30.642;2023-02-04T08:52:31;10.60;;;6.32;;
48925;SDS011;39838;59.938;30.642;2023-02-04T08:54:59;10.90;;;6.25;;
48925;SDS011;39838;59.938;30.642;2023-02-04T08:57:29;11.00;;;6.10;;
48925;SDS011;39838;59.938;30.642;2023-02-04T08:59:57;11.15;;;6.70;;
48925;SDS011;39838;59.938;30.642;2023-02-04T09:02:27;13.98;;;8.60;;
48925;SDS011;39838;59.938;30.642;2023-02-04T09:04:55;13.18;;;6.88;;
48925;SDS011;39838;59.938;30.642;2023-02-04T09:07:23;12.70;;;6.97;;
48925;SDS011;39838;59.938;30.642;2023-02-04T09:09:50;10.13;;;5.72;;
48925;SDS011;39838;59.938;30.642;2023-02-04T09:12:17;10.02;;;6.05;;
48925;SDS011;39838;59.938;30.642;2023-02-04T09:14:44;10.75;;;6.13;;
48925;SDS011;39838;59.938;30.642;2023-02-04T09:17:12;11.35;;;5.93;;
48925;SDS011;39838;59.938;30.642;2023-02-04T09:19:40;10.27;;;5.68;;
48925;SDS011;39838;59.938;30.642;2023-02-04T09:22:07;10.93;;;5.85;;
48925;SDS011;39838;59.938;30.642;2023-02-04T09:24:34;9.63;;;5.60;;
48925;SDS011;39838;59.938;30.642;2023-02-04T09:27:06;11.73;;;6.50;;
48925;SDS011;39838;59.938;30.642;2023-02-04T09:29:33;11.85;;;6.43;;
48925;SDS011;39838;59.938;30.642;2023-02-04T09:32:01;9.35;;;5.70;;
48925;SDS011;39838;59.938;30.642;2023-02-04T09:34:29;10.10;;;5.70;;
48925;SDS011;39838;59.938;30.642;2023-02-04T09:36:56;11.48;;;6.25;;
48925;SDS011;39838;59.938;30.642;2023-02-04T09:39:24;8.77;;;5.45;;
48925;SDS011;39838;59.938;30.642;2023-02-04T09:41:51;9.80;;;5.72;;
48925;SDS011;39838;59.938;30.642;2023-02-04T09:44:20;8.60;;;5.18;;
48925;SDS011;39838;59.938;30.642;2023-02-04T09:46:51;9.63;;;5.75;;
48925;SDS011;39838;59.938;30.642;2023-02-04T09:49:20;10.30;;;6.03;;
48925;SDS011;39838;59.938;30.642;2023-02-04T09:51:48;10.10;;;6.18;;
48925;SDS011;39838;59.938;30.642;2023-02-04T09:54:19;10.50;;;5.93;;
48925;SDS011;39838;59.938;30.642;2023-02-04T09:56:48;9.80;;;5.43;;
48925;SDS011;39838;59.938;30.642;2023-02-04T09:59:17;10.45;;;5.43;;
48925;SDS011;39838;59.938;30.642;2023-02-04T10:01:46;10.77;;;5.78;;
48925;SDS011;39838;59.938;30.642;2023-02-04T10:04:17;9.13;;;5.75;;
48925;SDS011;39838;59.938;30.642;2023-02-04T10:06:46;9.20;;;5.72;;
48925;SDS011;39838;59.938;30.642;2023-02-04T10:09:15;9.43;;;5.70;;
48925;SDS011;39838;59.938;30.642;2023-02-04T10:11:43;10.77;;;6.63;;
48925;SDS011;39838;59.938;30.642;2023-02-04T10:14:14;10.48;;;5.63;;
48925;SDS011;39838;59.938;30.642;2023-02-04T10:16:45;13.18;;;7.03;;
48925;SDS011;39838;59.938;30.642;2023-02-04T10:19:19;10.97;;;5.87;;
48925;SDS011;39838;59.938;30.642;2023-02-04T10:21:46;9.52;;;5.85;;
48925;SDS011;39838;59.938;30.642;2023-02-04T10:24:16;9.65;;;6.00;;
48925;SDS011;39838;59.938;30.642;2023-02-04T10:26:44;11.02;;;5.70;;
48925;SDS011;39838;59.938;30.642;2023-02-04T10:29:13;9.38;;;6.00;;
48925;SDS011;39838;59.938;30.642;2023-02-04T10:31:42;11.48;;;6.57;;
48925;SDS011;39838;59.938;30.642;2023-02-04T10:34:11;10.27;;;5.88;;
48925;SDS011;39838;59.938;30.642;2023-02-04T10:36:40;9.35;;;5.65;;
48925;SDS011;39838;59.938;30.642;2023-02-04T10:39:10;10.23;;;6.25;;
48925;SDS011;39838;59.938;30.642;2023-02-04T10:41:44;10.10;;;5.60;;
48925;SDS011;39838;59.938;30.642;2023-02-04T10:44:13;11.68;;;6.28;;
48925;SDS011;39838;59.938;30.642;2023-02-04T10:46:41;9.50;;;5.82;;
48925;SDS011;39838;59.938;30.642;2023-02-04T10:49:18;9.75;;;6.10;;
48925;SDS011;39838;59.938;30.642;2023-02-04T10:51:47;8.65;;;5.30;;
48925;SDS011;39838;59.938;30.642;2023-02-04T10:54:15;11.02;;;5.93;;
48925;SDS011;39838;59.938;30.642;2023-02-04T10:56:57;10.73;;;6.55;;
48925;SDS011;39838;59.938;30.642;2023-02-04T10:59:26;10.00;;;6.13;;
48925;SDS011;39838;59.938;30.642;2023-02-04T11:01:54;9.70;;;6.00;;
48925;SDS011;39838;59.938;30.642;2023-02-04T11:04:23;10.32;;;6.28;;
48925;SDS011;39838;59.938;30.642;2023-02-04T11:06:51;8.93;;;5.25;;
48925;SDS011;39838;59.938;30.642;2023-02-04T11:09:19;10.05;;;6.03;;
48925;SDS011;39838;59.938;30.642;2023-02-04T11:11:47;10.48;;;5.78;;
48925;SDS011;39838;59.938;30.642;2023-02-04T11:14:25;11.93;;;5.85;;
48925;SDS011;39838;59.938;30.642;2023-02-04T11:16:54;9.15;;;5.15;;
48925;SDS011;39838;59.938;30.642;2023-02-04T11:19:30;9.48;;;5.80;;
48925;SDS011;39838;59.938;30.642;2023-02-04T11:22:05;10.25;;;6.07;;
48925;SDS011;39838;59.938;30.642;2023-02-04T11:24:34;11.65;;;6.00;;
48925;SDS011;39838;59.938;30.642;2023-02-04T11:27:04;10.05;;;5.47;;
48925;SDS011;39838;59.938;30.642;2023-02-04T11:29:35;9.18;;;5.93;;
48925;SDS011;39838;59.938;30.642;2023-02-04T11:32:04;10.57;;;5.53;;
48925;SDS011;39838;59.938;30.642;2023-02-04T11:34:45;10.57;;;6.03;;
48925;SDS011;39838;59.938;30.642;2023-02-04T11:43:00;10.95;;;6.43;;
48925;SDS011;39838;59.938;30.642;2023-02-04T11:45:31;11.05;;;5.65;;
48925;SDS011;39838;59.938;30.642;2023-02-04T11:48:00;10.63;;;5.65;;
48925;SDS011;39838;59.938;30.642;2023-02-04T11:50:30;9.15;;;5.55;;
48925;SDS011;39838;59.938;30.642;2023-02-04T11:52:59;9.98;;;5.90;;
48925;SDS011;39838;59.938;30.642;2023-02-04T11:55:27;10.40;;;6.00;;
48925;SDS011;39838;59.938;30.642;2023-02-04T11:57:56;8.80;;;6.07;;
48925;SDS011;39838;59.938;30.642;2023-02-04T12:00:24;10.70;;;6.25;;
48925;SDS011;39838;59.938;30.642;2023-02-04T12:02:56;10.20;;;5.88;;
48925;SDS011;39838;59.938;30.642;2023-02-04T12:05:35;8.95;;;5.85;;
48925;SDS011;39838;59.938;30.642;2023-02-04T12:08:08;10.48;;;6.10;;
48925;SDS011;39838;59.938;30.642;2023-02-04T12:10:37;10.50;;;6.18;;
48925;SDS011;39838;59.938;30.642;2023-02-04T12:13:11;11.80;;;6.50;;
48925;SDS011;39838;59.938;30.642;2023-02-04T12:15:42;9.20;;;5.97;;
48925;SDS011;39838;59.938;30.642;2023-02-04T12:18:21;10.07;;;5.47;;
48925;SDS011;39838;59.938;30.642;2023-02-04T12:20:48;11.20;;;6.13;;
48925;SDS011;39838;59.938;30.642;2023-02-04T12:23:15;10.57;;;5.95;;
48925;SDS011;39838;59.938;30.642;2023-02-04T12:25:42;11.48;;;5.82;;
48925;SDS011;39838;59.938;30.642;2023-02-04T12:28:09;11.20;;;6.55;;
48925;SDS011;39838;59.938;30.642;2023-02-04T12:30:36;10.95;;;6.55;;
48925;SDS011;39838;59.938;30.642;2023-02-04T12:33:03;10.20;;;5.80;;
48925;SDS011;39838;59.938;30.642;2023-02-04T12:35:32;10.63;;;5.95;;
48925;SDS011;39838;59.938;30.642;2023-02-04T12:38:00;10.00;;;5.82;;
48925;SDS011;39838;59.938;30.642;2023-02-04T12:40:27;9.60;;;5.57;;
48925;SDS011;39838;59.938;30.642;2023-02-04T12:42:54;9.35;;;5.82;;
48925;SDS011;39838;59.938;30.642;2023-02-04T12:45:22;10.40;;;6.30;;
48925;SDS011;39838;59.938;30.642;2023-02-04T12:47:49;9.95;;;5.38;;
48925;SDS011;39838;59.938;30.642;2023-02-04T12:50:16;9.60;;;5.45;;
48925;SDS011;39838;59.938;30.642;2023-02-04T12:52:48;10.63;;;5.40;;
48925;SDS011;39838;59.938;30.642;2023-02-04T12:55:16;9.77;;;5.82;;
48925;SDS011;39838;59.938;30.642;2023-02-04T12:57:43;9.15;;;5.50;;
48925;SDS011;39838;59.938;30.642;2023-02-04T13:00:11;10.48;;;5.90;;
48925;SDS011;39838;59.938;30.642;2023-02-04T13:02:40;9.98;;;5.53;;
48925;SDS011;39838;59.938;30.642;2023-02-04T13:05:07;9.45;;;5.60;;
48925;SDS011;39838;59.938;30.642;2023-02-04T13:07:35;9.77;;;5.93;;
48925;SDS011;39838;59.938;30.642;2023-02-04T13:10:06;8.60;;;5.80;;
48925;SDS011;39838;59.938;30.642;2023-02-04T13:12:34;8.73;;;5.90;;
48925;SDS011;39838;59.938;30.642;2023-02-04T13:15:05;10.18;;;6.30;;
48925;SDS011;39838;59.938;30.642;2023-02-04T13:17:33;9.95;;;6.18;;
48925;SDS011;39838;59.938;30.642;2023-02-04T13:20:00;12.10;;;6.22;;
48925;SDS011;39838;59.938;30.642;2023-02-04T13:22:28;11.88;;;6.90;;
48925;SDS011;39838;59.938;30.642;2023-02-04T13:24:56;11.07;;;6.15;;
48925;SDS011;39838;59.938;30.642;2023-02-04T13:27:24;10.15;;;5.72;;
48925;SDS011;39838;59.938;30.642;2023-02-04T13:29:52;12.20;;;6.13;;
48925;SDS011;39838;59.938;30.642;2023-02-04T13:32:19;10.13;;;6.10;;
48925;SDS011;39838;59.938;30.642;2023-02-04T13:34:46;9.98;;;6.13;;
48925;SDS011;39838;59.938;30.642;2023-02-04T13:37:13;12.00;;;6.35;;
48925;SDS011;39838;59.938;30.642;2023-02-04T13:39:40;9.27;;;5.80;;
48925;SDS011;39838;59.938;30.642;2023-02-04T13:42:08;10.07;;;6.30;;
48925;SDS011;39838;59.938;30.642;2023-02-04T13:44:36;9.85;;;5.85;;
48925;SDS011;39838;59.938;30.642;2023-02-04T13:47:03;10.10;;;5.75;;
48925;SDS011;39838;59.938;30.642;2023-02-04T13:49:30;11.35;;;6.93;;
48925;SDS011;39838;59.938;30.642;2023-02-04T13:51:58;10.55;;;6.32;;
48925;SDS011;39838;59.938;30.642;2023-02-04T13:54:25;9.55;;;5.22;;
48925;SDS011;39838;59.938;30.642;2023-02-04T13:56:52;10.35;;;6.20;;
48925;SDS011;39838;59.938;30.642;2023-02-04T13:59:19;9.30;;;5.47;;
48925;SDS011;39838;59.938;30.642;2023-02-04T14:01:48;9.23;;;5.30;;
48925;SDS011;39838;59.938;30.642;2023-02-04T14:04:15;11.02;;;6.10;;
48925;SDS011;39838;59.938;30.642;2023-02-04T14:06:42;10.43;;;6.53;;
48925;SDS011;39838;59.938;30.642;2023-02-04T14:09:09;11.27;;;6.97;;
48925;SDS011;39838;59.938;30.642;2023-02-04T14:11:37;10.43;;;5.97;;
48925;SDS011;39838;59.938;30.642;2023-02-04T14:14:05;11.10;;;6.45;;
48925;SDS011;39838;59.938;30.642;2023-02-04T14:16:33;11.93;;;7.00;;
48925;SDS011;39838;59.938;30.642;2023-02-04T14:19:01;10.85;;;6.55;;
48925;SDS011;39838;59.938;30.642;2023-02-04T14:21:28;12.10;;;6.50;;
48925;SDS011;39838;59.938;30.642;2023-02-04T14:23:55;10.27;;;6.07;;
48925;SDS011;39838;59.938;30.642;2023-02-04T14:26:23;11.05;;;5.53;;
48925;SDS011;39838;59.938;30.642;2023-02-04T14:28:50;8.75;;;5.70;;
48925;SDS011;39838;59.938;30.642;2023-02-04T14:31:17;9.80;;;5.20;;
48925;SDS011;39838;59.938;30.642;2023-02-04T14:33:44;9.38;;;5.20;;